Time;durP1;ratioP1;P1;durP2;ratioP2;P2;SDS_P1;SDS_P2;PMS_P1;PMS_P2;Temp;Humidity;BMP_temperature;BMP_pressure;BME280_temperature;BME280_humidity;BME280_pressure;Samples;Min_cycle;Max_cycle;Signal;HPM_P1;HPM_P2
2021/08/22 00:01:32;;;;;;;;;5.50;5.50;;;;;22.32;59.62;101360.81;5002340;28;45343;-79
2021/08/22 00:03:58;;;;;;;;;4.50;4.50;;;;;22.31;59.49;101354.50;5002350;28;45303;-79
2021/08/22 00:06:23;;;;;;;;;5.00;5.00;;;;;22.26;59.79;101343.06;5002803;28;45383;-79
2021/08/22 00:08:48;;;;;;;;;4.00;4.00;;;;;22.29;59.93;101347.47;5002715;28;45279;-79
2021/08/22 00:11:14;;;;;;;;;4.00;4.00;;;;;22.30;59.78;101349.19;5002339;28;47177;-79
2021/08/22 00:13:39;;;;;;;;;4.50;4.50;;;;;22.29;59.70;101342.88;5002349;28;46186;-79
2021/08/22 00:16:05;;;;;;;;;6.00;5.00;;;;;22.27;59.70;101342.09;5002275;28;45370;-79
2021/08/22 00:18:31;;;;;;;;;5.75;5.00;;;;;22.26;59.80;101344.94;5002346;28;45434;-79
2021/08/22 00:20:56;;;;;;;;;5.75;5.75;;;;;22.21;60.08;101337.09;5001003;28;45538;-80
2021/08/22 00:23:22;;;;;;;;;5.00;5.00;;;;;22.25;59.53;101352.19;5002158;28;46185;-79
2021/08/22 00:25:47;;;;;;;;;5.50;5.50;;;;;22.23;60.03;101353.31;5002225;28;45200;-80
2021/08/22 00:28:13;;;;;;;;;3.75;3.75;;;;;22.15;59.94;101338.41;5002149;28;45628;-79
2021/08/22 00:30:38;;;;;;;;;5.00;4.00;;;;;22.21;60.05;101342.53;5002104;28;45190;-79
2021/08/22 00:33:04;;;;;;;;;5.50;5.25;;;;;22.21;59.75;101354.28;5001779;28;46322;-80
2021/08/22 00:35:29;;;;;;;;;4.00;4.00;;;;;22.24;59.83;101357.78;5002403;28;45289;-79
2021/08/22 00:37:55;;;;;;;;;4.50;4.00;;;;;22.19;60.07;101355.38;5002111;28;45276;-79
2021/08/22 00:40:20;;;;;;;;;5.00;4.00;;;;;22.24;60.13;101363.22;5002244;28;45228;-79
2021/08/22 00:42:48;;;;;;;;;4.25;4.25;;;;;22.21;59.84;101361.56;5001789;28;45409;-80
2021/08/22 00:45:14;;;;;;;;;3.75;3.75;;;;;22.22;59.90;101360.59;5001754;28;45376;-79
2021/08/22 00:47:41;;;;;;;;;6.00;4.25;;;;;22.20;60.28;101358.00;5002039;28;45347;-79
2021/08/22 00:50:07;;;;;;;;;6.75;5.25;;;;;22.15;60.06;101365.63;5002499;28;45421;-79
2021/08/22 00:52:34;;;;;;;;;5.00;5.00;;;;;22.19;60.69;101366.25;5001537;28;45438;-79
2021/08/22 00:55:03;;;;;;;;;6.00;5.00;;;;;22.13;60.34;101358.53;5001912;28;45270;-80
2021/08/22 00:57:29;;;;;;;;;5.75;5.75;;;;;22.17;60.01;101368.22;5001815;28;45363;-79
2021/08/22 00:59:54;;;;;;;;;5.25;5.25;;;;;22.15;60.55;101365.63;5001644;28;45332;-79
2021/08/22 01:02:29;;;;;;;;;6.25;5.00;;;;;22.17;60.86;101365.50;5001420;28;45454;-79
2021/08/22 01:05:21;;;;;;;;;4.50;4.50;;;;;22.16;60.64;101372.78;5001758;28;45383;-79
2021/08/22 01:08:01;;;;;;;;;6.00;5.50;;;;;22.17;60.54;101379.09;4996488;28;45243;-79
2021/08/22 01:10:28;;;;;;;;;5.00;3.75;;;;;22.15;60.63;101381.03;5014850;28;46356;-79
2021/08/22 01:13:04;;;;;;;;;4.00;4.00;;;;;22.13;60.81;101375.69;5001517;28;45364;-79
2021/08/22 01:15:33;;;;;;;;;5.25;5.25;;;;;22.14;60.53;101373.88;5001475;28;45531;-79
2021/08/22 01:18:01;;;;;;;;;5.00;5.00;;;;;22.14;60.81;101376.59;5001677;28;45275;-79
2021/08/22 01:20:33;;;;;;;;;4.75;3.25;;;;;22.13;60.38;101381.13;5001564;28;45464;-79
2021/08/22 01:22:59;;;;;;;;;5.00;5.00;;;;;22.10;60.56;101378.66;5001383;28;45329;-80
2021/08/22 01:25:25;;;;;;;;;5.00;5.00;;;;;22.12;60.49;101373.97;5001659;28;45533;-79
2021/08/22 01:27:51;;;;;;;;;4.50;4.50;;;;;22.12;61.07;101378.53;5001294;28;45240;-79
2021/08/22 01:30:18;;;;;;;;;5.00;5.00;;;;;22.09;60.76;101371.47;5001305;28;45368;-79
2021/08/22 01:32:46;;;;;;;;;5.75;4.00;;;;;22.08;60.64;101386.03;5000488;28;45442;-79
2021/08/22 01:35:13;;;;;;;;;5.25;4.25;;;;;22.07;60.59;101388.88;5001333;28;45174;-81
2021/08/22 01:37:41;;;;;;;;;6.00;5.75;;;;;22.06;60.24;101388.00;5001310;28;45344;-79
2021/08/22 01:40:09;;;;;;;;;4.25;4.25;;;;;22.03;60.51;101393.66;5001271;28;45316;-79
2021/08/22 01:42:37;;;;;;;;;4.00;4.00;;;;;21.95;60.42;101386.06;5001033;28;46514;-80
2021/08/22 01:45:07;;;;;;;;;4.50;4.50;;;;;21.97;60.34;101388.66;5001064;28;45764;-80
2021/08/22 01:47:35;;;;;;;;;4.00;4.00;;;;;21.95;60.80;101388.78;5001154;28;45358;-79
2021/08/22 01:50:02;;;;;;;;;5.50;5.50;;;;;21.93;60.88;101393.41;5001030;28;45505;-79
2021/08/22 01:52:29;;;;;;;;;6.00;5.00;;;;;21.92;60.65;101397.13;4999602;28;46121;-79
2021/08/22 01:54:55;;;;;;;;;5.00;5.00;;;;;21.91;60.69;101386.38;5001067;28;45417;-79
2021/08/22 01:57:20;;;;;;;;;5.75;4.50;;;;;21.90;60.50;101392.78;5000865;28;45396;-79
2021/08/22 01:59:46;;;;;;;;;5.75;4.50;;;;;21.87;60.62;101384.81;5000875;28;45486;-79
2021/08/22 02:02:12;;;;;;;;;4.25;4.25;;;;;21.87;60.61;101385.72;5000548;28;46462;-80
2021/08/22 02:04:52;;;;;;;;;4.50;4.50;;;;;21.90;60.11;101392.78;5000914;28;45333;-78
2021/08/22 02:07:20;;;;;;;;;5.50;4.75;;;;;21.91;60.05;101399.97;5000761;28;45224;-79
2021/08/22 02:09:56;;;;;;;;;6.00;6.00;;;;;21.89;60.15;101401.91;5000648;28;45491;-79
2021/08/22 02:12:22;;;;;;;;;4.00;4.00;;;;;21.86;60.59;101397.56;5000624;28;46119;-79
2021/08/22 02:15:19;;;;;;;;;4.75;4.75;;;;;21.84;60.32;101410.38;5000309;28;45253;-79
2021/08/22 02:18:06;;;;;;;;;6.00;6.00;;;;;21.85;59.78;101398.53;5000538;28;45461;-79
2021/08/22 02:20:33;;;;;;;;;4.00;4.00;;;;;21.83;60.04;101401.38;5000602;28;45266;-79
2021/08/22 02:22:59;;;;;;;;;4.00;4.00;;;;;21.84;60.31;101400.38;5000527;28;47263;-80
2021/08/22 02:25:29;;;;;;;;;5.25;5.25;;;;;21.82;59.59;101407.78;5000505;28;45666;-78
2021/08/22 02:27:58;;;;;;;;;4.25;3.25;;;;;21.80;59.90;101395.25;5000497;28;45419;-79
2021/08/22 02:30:24;;;;;;;;;3.50;3.50;;;;;21.77;60.16;101401.78;5000205;28;45363;-78
2021/08/22 02:32:50;;;;;;;;;3.75;3.75;;;;;21.79;59.99;101407.13;4999962;28;46125;-80
2021/08/22 02:35:16;;;;;;;;;4.00;4.00;;;;;21.80;59.81;101406.13;5000486;28;45451;-78
2021/08/22 02:37:41;;;;;;;;;4.25;4.00;;;;;21.78;59.99;101403.50;5000411;28;45300;-79
2021/08/22 02:40:07;;;;;;;;;7.00;5.00;;;;;21.77;59.34;101406.38;5000434;28;45294;-79
2021/08/22 02:42:32;;;;;;;;;3.25;3.25;;;;;21.78;59.78;101410.81;5000028;28;45413;-78
2021/08/22 02:44:58;;;;;;;;;3.00;3.00;;;;;21.73;59.66;101402.97;4998851;28;52517;-78
2021/08/22 02:47:23;;;;;;;;;3.75;3.75;;;;;21.67;59.49;101403.41;5000252;28;45253;-79
2021/08/22 02:49:48;;;;;;;;;5.50;4.50;;;;;21.63;59.43;101402.75;5000196;28;45197;-80
2021/08/22 02:52:14;;;;;;;;;5.00;5.00;;;;;21.58;59.31;101396.72;5000039;28;46309;-78
2021/08/22 02:54:39;;;;;;;;;5.75;5.75;;;;;21.59;59.39;101408.50;5000078;28;45295;-79
2021/08/22 02:57:05;;;;;;;;;3.00;2.25;;;;;21.54;59.09;101400.66;5000108;28;45511;-79
2021/08/22 02:59:31;;;;;;;;;3.75;3.75;;;;;21.52;58.92;101401.72;5000006;28;45558;-79
2021/08/22 03:01:56;;;;;;;;;9.00;4.00;;;;;21.51;59.42;101397.28;4999769;28;46248;-80
2021/08/22 03:04:21;;;;;;;;;3.25;3.25;;;;;21.50;59.19;101395.53;5000079;28;45303;-79
2021/08/22 03:06:46;;;;;;;;;5.00;5.00;;;;;21.47;58.24;101404.78;4999953;28;45464;-78
2021/08/22 03:09:12;;;;;;;;;2.50;2.50;;;;;21.37;57.92;101396.34;5000045;28;45437;-79
2021/08/22 03:11:38;;;;;;;;;6.00;3.50;;;;;21.42;58.37;101413.19;4999823;28;46275;-77
2021/08/22 03:14:05;;;;;;;;;4.50;4.00;;;;;21.36;58.46;101400.00;4999976;28;45562;-79
2021/08/22 03:16:30;;;;;;;;;5.25;5.25;;;;;21.35;58.07;101401.00;4999797;28;45322;-78
2021/08/22 03:18:55;;;;;;;;;4.00;4.00;;;;;21.34;57.84;101404.69;4999865;28;45355;-77
2021/08/22 03:21:21;;;;;;;;;3.50;3.50;;;;;21.29;57.97;101398.69;4999877;28;46046;-78
2021/08/22 03:23:47;;;;;;;;;4.25;2.75;;;;;21.28;58.28;101397.84;4999815;28;45403;-77
2021/08/22 03:26:12;;;;;;;;;3.00;3.00;;;;;21.25;58.25;101397.13;4999827;28;45372;-78
2021/08/22 03:28:37;;;;;;;;;6.50;5.00;;;;;21.24;58.29;101400.84;4999705;28;45441;-78
2021/08/22 03:31:03;;;;;;;;;5.50;4.75;;;;;21.22;58.37;101398.22;4999366;28;45329;-78
2021/08/22 03:33:28;;;;;;;;;6.75;6.00;;;;;21.20;57.88;101402.00;4999680;28;45256;-78
2021/08/22 03:35:54;;;;;;;;;4.00;4.00;;;;;21.15;57.96;101398.72;4999868;28;45288;-78
2021/08/22 03:38:19;;;;;;;;;6.00;5.00;;;;;21.11;58.07;101395.34;4999647;28;45529;-77
2021/08/22 03:40:45;;;;;;;;;6.50;5.50;;;;;21.08;57.98;101395.56;4999495;28;45253;-79
2021/08/22 03:43:10;;;;;;;;;5.50;5.00;;;;;21.04;57.99;101392.19;4999405;28;45282;-78
2021/08/22 03:45:35;;;;;;;;;5.50;4.50;;;;;21.00;57.72;101393.38;4998110;28;45295;-78
2021/08/22 03:48:01;;;;;;;;;6.25;4.00;;;;;20.92;57.44;101380.28;4999414;28;45297;-78
2021/08/22 03:50:27;;;;;;;;;8.25;6.00;;;;;21.00;57.59;101392.47;4999233;28;45172;-78
2021/08/22 03:52:52;;;;;;;;;4.25;2.50;;;;;20.96;57.26;101399.97;4999408;28;45317;-77
2021/08/22 03:55:20;;;;;;;;;7.00;7.00;;;;;20.93;57.80;101408.28;5000194;28;45273;-80
2021/08/22 03:57:45;;;;;;;;;4.25;4.25;;;;;20.99;57.28;101417.91;5002595;28;45292;-78
2021/08/22 04:00:11;;;;;;;;;6.00;6.00;;;;;20.83;57.40;101399.00;5002353;28;46185;-79
2021/08/22 04:02:37;;;;;;;;;6.25;5.50;;;;;20.95;57.78;101417.22;5002564;28;45312;-78
2021/08/22 04:05:04;;;;;;;;;9.00;5.75;;;;;20.80;57.30;101388.34;5002786;28;45431;-77
2021/08/22 04:07:30;;;;;;;;;4.50;4.50;;;;;20.86;57.11;101404.25;5002513;28;45410;-78
2021/08/22 04:09:56;;;;;;;;;4.00;2.25;;;;;20.91;57.78;101410.25;5002663;28;46089;-78
2021/08/22 04:12:21;;;;;;;;;4.25;4.00;;;;;20.84;57.33;101407.06;5002512;28;45260;-78
2021/08/22 04:14:47;;;;;;;;;5.00;4.00;;;;;20.86;57.55;101415.97;5002511;28;45157;-78
2021/08/22 04:17:12;;;;;;;;;3.00;3.00;;;;;20.87;57.24;101423.16;5001371;28;45266;-78
2021/08/22 04:19:38;;;;;;;;;4.25;4.25;;;;;20.75;57.63;101402.25;5002196;28;45494;-77
2021/08/22 04:22:03;;;;;;;;;7.50;4.75;;;;;20.82;57.67;101416.28;5002253;28;45398;-78
2021/08/22 04:24:29;;;;;;;;;4.00;4.00;;;;;20.79;57.52;101421.91;5002646;28;45328;-77
2021/08/22 04:26:55;;;;;;;;;4.50;4.50;;;;;20.78;57.04;101426.47;5002511;28;45395;-77
2021/08/22 04:29:21;;;;;;;;;5.00;5.00;;;;;20.70;57.74;101424.25;5001995;28;46110;-77
2021/08/22 04:31:46;;;;;;;;;4.25;4.00;;;;;20.66;57.00;101421.81;5000775;28;45340;-78
2021/08/22 04:34:12;;;;;;;;;5.75;5.75;;;;;20.70;57.24;101421.53;5002064;28;45245;-78
2021/08/22 04:36:37;;;;;;;;;4.00;4.00;;;;;20.58;57.68;101408.72;5002332;28;45219;-77
2021/08/22 04:39:02;;;;;;;;;3.75;3.50;;;;;20.64;57.73;101419.19;5001892;28;45815;-77
2021/08/22 04:41:28;;;;;;;;;2.25;2.25;;;;;20.62;57.00;101420.25;5002290;28;45364;-77
2021/08/22 04:43:53;;;;;;;;;5.00;4.00;;;;;20.59;57.78;101418.59;5000733;28;45260;-77
2021/08/22 04:46:20;;;;;;;;;6.50;4.00;;;;;20.60;57.22;101417.63;5001986;28;45421;-77
2021/08/22 04:48:45;;;;;;;;;4.00;3.25;;;;;20.51;57.53;101413.69;5000557;28;46990;-77
2021/08/22 04:51:11;;;;;;;;;7.50;4.75;;;;;20.57;57.61;101416.97;5001661;28;45301;-78
2021/08/22 04:53:36;;;;;;;;;4.00;4.00;;;;;20.51;57.23;101410.97;5000749;28;45298;-77
2021/08/22 04:56:02;;;;;;;;;4.50;3.75;;;;;20.33;57.31;101393.13;5001787;28;45182;-77
2021/08/22 04:58:27;;;;;;;;;3.50;3.50;;;;;20.48;57.67;101426.53;5000206;28;46096;-77
2021/08/22 05:00:53;;;;;;;;;4.00;4.00;;;;;20.50;57.50;101435.47;5001617;28;45513;-78
2021/08/22 05:03:18;;;;;;;;;8.50;5.75;;;;;20.36;57.25;101415.50;5001798;28;45432;-77
2021/08/22 05:05:43;;;;;;;;;3.75;3.25;;;;;20.35;57.59;101421.03;5001807;28;45449;-77
2021/08/22 05:08:09;;;;;;;;;5.00;4.00;;;;;20.36;57.63;101431.78;5000638;28;46017;-78
2021/08/22 05:10:37;;;;;;;;;3.00;3.00;;;;;20.34;57.27;101422.00;5001733;28;45399;-77
2021/08/22 05:13:02;;;;;;;;;5.00;3.25;;;;;20.35;57.44;101430.03;5001748;28;45505;-78
2021/08/22 05:15:28;;;;;;;;;4.00;3.00;;;;;20.42;57.58;101443.22;5001301;28;45468;-78
2021/08/22 05:17:53;;;;;;;;;5.00;4.25;;;;;20.30;57.67;101420.44;4999970;28;46298;-78
2021/08/22 05:20:19;;;;;;;;;4.00;4.00;;;;;20.33;57.47;101431.97;5001573;28;45340;-78
2021/08/22 05:22:45;;;;;;;;;6.50;4.75;;;;;20.41;57.39;101438.75;5001410;28;45225;-77
2021/08/22 05:25:29;;;;;;;;;3.50;3.50;;;;;20.42;57.44;101441.34;5001499;28;45408;-78
2021/08/22 05:27:55;;;;;;;;;3.25;3.25;;;;;20.41;57.59;101441.44;5000983;28;45245;-78
2021/08/22 05:30:20;;;;;;;;;5.00;5.00;;;;;20.40;57.36;101431.56;4999960;28;45232;-78
2021/08/22 05:32:45;;;;;;;;;3.50;3.50;;;;;20.32;57.39;101432.06;5001050;28;45155;-77
2021/08/22 05:35:11;;;;;;;;;4.00;4.00;;;;;20.31;57.18;101428.50;5001265;28;45220;-77
2021/08/22 05:37:36;;;;;;;;;5.25;5.00;;;;;20.27;57.38;101418.78;5001049;28;45389;-78
2021/08/22 05:40:02;;;;;;;;;5.50;4.00;;;;;20.27;57.47;101429.63;5001258;28;45250;-79
2021/08/22 05:42:27;;;;;;;;;3.25;3.00;;;;;20.32;57.32;101446.47;5001126;28;45402;-77
2021/08/22 05:44:53;;;;;;;;;3.50;3.00;;;;;20.33;57.64;101448.25;5000820;28;45446;-76
2021/08/22 05:47:20;;;;;;;;;3.50;3.50;;;;;20.23;57.66;101435.34;5000926;28;45450;-77
2021/08/22 05:49:47;;;;;;;;;4.00;4.00;;;;;20.24;57.69;101439.81;5001012;28;45342;-78
2021/08/22 05:52:13;;;;;;;;;5.00;4.00;;;;;20.21;57.35;101439.97;5001055;28;45414;-78
2021/08/22 05:54:38;;;;;;;;;2.50;2.50;;;;;20.26;57.17;101449.56;5001022;28;45430;-78
2021/08/22 05:57:04;;;;;;;;;5.00;5.00;;;;;20.27;57.44;101455.88;5000542;28;46325;-79
2021/08/22 05:59:29;;;;;;;;;5.50;3.50;;;;;20.31;57.46;101463.72;5000797;28;45266;-78
2021/08/22 06:01:55;;;;;;;;;4.25;4.00;;;;;20.24;57.56;101448.78;5000942;28;45142;-77
2021/08/22 06:04:20;;;;;;;;;2.50;2.50;;;;;20.23;57.85;101447.06;4999474;28;45198;-78
2021/08/22 06:06:46;;;;;;;;;5.25;4.75;;;;;20.21;57.65;101454.41;5000591;28;46004;-78
2021/08/22 06:09:11;;;;;;;;;4.25;4.25;;;;;20.20;57.59;101454.50;5000714;28;45257;-78
2021/08/22 06:11:37;;;;;;;;;3.25;3.25;;;;;20.31;57.89;101477.28;4999442;28;45208;-78
2021/08/22 06:14:02;;;;;;;;;3.50;3.50;;;;;20.28;57.65;101469.34;4999096;28;45170;-78
2021/08/22 06:16:27;;;;;;;;;5.00;4.75;;;;;20.28;57.53;101474.75;5000543;28;46302;-78
2021/08/22 06:18:53;;;;;;;;;3.00;3.00;;;;;20.30;57.55;101480.09;5000683;28;45297;-78
2021/08/22 06:21:18;;;;;;;;;5.00;4.25;;;;;20.33;57.46;101486.19;4999403;28;45464;-77
2021/08/22 06:23:43;;;;;;;;;3.75;2.75;;;;;20.29;57.54;101483.75;5000550;28;45362;-78
2021/08/22 06:26:09;;;;;;;;;6.75;6.75;;;;;20.30;57.50;101480.97;4998956;28;47252;-78
2021/08/22 06:28:34;;;;;;;;;5.75;5.75;;;;;20.31;57.42;101496.28;5000470;28;45262;-77
2021/08/22 06:31:00;;;;;;;;;4.00;2.00;;;;;20.31;57.74;101492.66;5000270;28;45232;-78
2021/08/22 06:33:25;;;;;;;;;4.00;3.25;;;;;20.31;57.35;101485.44;5000219;28;45300;-78
2021/08/22 06:35:50;;;;;;;;;4.00;4.00;;;;;20.26;57.84;101482.09;5000337;28;46399;-77
2021/08/22 06:38:16;;;;;;;;;3.00;3.00;;;;;20.25;57.52;101487.63;5000356;28;45219;-78
2021/08/22 06:40:41;;;;;;;;;2.00;2.00;;;;;20.32;57.68;101492.56;5000457;28;45260;-78
2021/08/22 06:43:07;;;;;;;;;5.75;5.50;;;;;20.29;57.83;101489.19;5000213;28;45406;-78
2021/08/22 06:45:32;;;;;;;;;3.50;3.00;;;;;20.30;57.80;101499.94;4999791;28;45490;-77
2021/08/22 06:47:58;;;;;;;;;5.00;5.00;;;;;20.22;58.25;101483.25;4998827;28;45307;-78
2021/08/22 06:50:26;;;;;;;;;3.00;3.00;;;;;20.30;57.49;101508.06;5000284;28;45331;-78
2021/08/22 06:52:52;;;;;;;;;6.25;3.00;;;;;20.30;57.85;101499.94;5000165;28;45446;-77
2021/08/22 06:55:18;;;;;;;;;2.75;0.50;;;;;20.21;57.81;101488.78;5000150;28;46367;-78
2021/08/22 06:57:43;;;;;;;;;4.00;4.00;;;;;20.17;57.75;101488.09;4999860;28;45331;-78
2021/08/22 07:00:09;;;;;;;;;3.00;3.00;;;;;20.27;58.11;101497.41;4999830;28;45296;-78
2021/08/22 07:02:34;;;;;;;;;2.50;2.50;;;;;20.27;57.29;101497.41;4999931;28;45396;-77
2021/08/22 07:05:00;;;;;;;;;0.50;0.50;;;;;20.34;58.06;101511.47;5000130;28;46144;-78
2021/08/22 07:07:25;;;;;;;;;3.50;3.25;;;;;20.30;58.31;101493.66;4999877;28;45276;-77
2021/08/22 07:09:50;;;;;;;;;4.00;4.00;;;;;20.42;57.80;101513.72;5000077;28;45358;-78
2021/08/22 07:12:16;;;;;;;;;3.75;3.75;;;;;20.37;57.73;101505.84;4999776;28;45578;-77
2021/08/22 07:14:42;;;;;;;;;3.25;2.25;;;;;20.49;57.58;101521.34;4999472;28;46179;-79
2021/08/22 07:17:08;;;;;;;;;3.00;3.00;;;;;20.35;57.86;101494.25;4998613;28;46003;-78
2021/08/22 07:19:33;;;;;;;;;3.75;3.75;;;;;20.48;57.83;101516.03;4999831;28;45283;-77
2021/08/22 07:21:58;;;;;;;;;2.75;2.75;;;;;20.53;57.79;101530.16;4999797;28;45645;-79
2021/08/22 07:24:24;;;;;;;;;3.00;3.00;;;;;20.52;57.76;101518.44;4999568;28;46752;-78
2021/08/22 07:26:49;;;;;;;;;2.50;2.50;;;;;20.50;57.81;101517.69;4999807;28;45220;-77
2021/08/22 07:29:15;;;;;;;;;3.75;3.00;;;;;20.51;57.56;101523.97;4999578;28;45351;-78
2021/08/22 07:31:40;;;;;;;;;3.50;2.00;;;;;20.44;57.78;101509.91;5002264;28;45225;-78
2021/08/22 07:34:05;;;;;;;;;4.50;4.00;;;;;20.54;57.63;101537.34;5003000;28;46419;-78
2021/08/22 07:36:31;;;;;;;;;2.25;2.25;;;;;20.47;57.41;101522.44;5003217;28;45235;-77
2021/08/22 07:38:56;;;;;;;;;2.25;1.50;;;;;20.53;57.43;101525.63;5003243;28;46004;-78
2021/08/22 07:41:21;;;;;;;;;2.25;2.25;;;;;20.53;57.93;101528.34;5002920;28;45407;-78
2021/08/22 07:43:47;;;;;;;;;3.00;3.00;;;;;20.51;58.00;101523.97;5003003;28;46285;-78
2021/08/22 07:46:12;;;;;;;;;2.50;2.50;;;;;20.53;57.65;101541.91;5002516;28;45265;-78
2021/08/22 07:48:37;;;;;;;;;4.50;2.75;;;;;20.60;57.48;101544.22;5002956;28;45587;-78
2021/08/22 07:51:03;;;;;;;;;2.25;2.00;;;;;20.57;57.36;101545.31;5002795;28;45196;-78
2021/08/22 07:53:28;;;;;;;;;2.25;2.00;;;;;20.46;57.56;101523.38;5002722;28;46417;-77
2021/08/22 07:55:54;;;;;;;;;0.00;0.00;;;;;20.58;57.59;101543.44;5002816;28;45370;-78
2021/08/22 07:58:19;;;;;;;;;2.00;2.00;;;;;20.59;57.39;101542.50;5002605;28;45309;-78
2021/08/22 08:00:44;;;;;;;;;2.75;2.00;;;;;20.56;57.33;101540.81;5001140;28;45937;-78
2021/08/22 08:03:10;;;;;;;;;3.00;3.00;;;;;20.61;57.74;101549.56;5002575;28;45430;-78
2021/08/22 08:05:36;;;;;;;;;5.00;2.75;;;;;20.60;56.83;101547.81;5002460;28;45392;-77
2021/08/22 08:08:01;;;;;;;;;2.00;2.00;;;;;20.56;56.67;101524.56;5002652;28;45470;-77
2021/08/22 08:10:27;;;;;;;;;3.25;3.00;;;;;20.64;57.43;101529.56;5002432;28;45589;-77
2021/08/22 08:12:52;;;;;;;;;2.00;2.00;;;;;20.60;57.00;101534.25;5002315;28;45524;-78
2021/08/22 08:15:18;;;;;;;;;2.00;2.00;;;;;20.67;57.25;101537.50;5002245;28;45343;-78
2021/08/22 08:17:45;;;;;;;;;3.00;3.00;;;;;20.66;57.29;101533.03;5002638;28;45352;-78
2021/08/22 08:20:11;;;;;;;;;4.00;3.00;;;;;20.67;57.11;101540.22;5001202;28;45237;-78
2021/08/22 08:22:36;;;;;;;;;2.50;2.50;;;;;20.77;57.48;101554.94;5002285;28;45260;-78
2021/08/22 08:25:02;;;;;;;;;4.50;2.00;;;;;20.71;57.27;101539.94;5002288;28;45287;-78
2021/08/22 08:27:27;;;;;;;;;3.50;3.50;;;;;20.84;57.13;101555.44;5001172;28;45280;-78
2021/08/22 08:29:53;;;;;;;;;3.00;3.00;;;;;20.90;57.37;101563.19;5001804;28;45228;-78
2021/08/22 08:32:18;;;;;;;;;3.00;1.25;;;;;20.94;57.17;101559.31;5000667;28;47501;-78
2021/08/22 08:34:44;;;;;;;;;2.00;2.00;;;;;20.80;56.84;101533.06;5002089;28;45352;-77
2021/08/22 08:37:09;;;;;;;;;2.00;2.00;;;;;20.90;56.92;101549.63;5002376;28;45421;-78
2021/08/22 08:39:35;;;;;;;;;2.50;2.00;;;;;20.97;57.10;101558.25;5002166;28;45455;-77
2021/08/22 08:42:12;;;;;;;;;3.00;2.00;;;;;21.04;56.74;101565.03;5000667;28;47033;-79
2021/08/22 08:44:37;;;;;;;;;4.50;3.00;;;;;20.87;56.56;101539.81;5001985;28;45538;-78
2021/08/22 08:47:05;;;;;;;;;1.50;1.50;;;;;20.97;56.57;101558.25;5002162;28;45292;-78
2021/08/22 08:49:38;;;;;;;;;2.00;2.00;;;;;20.96;56.81;101553.78;5001929;28;45487;-77
2021/08/22 08:52:28;;;;;;;;;2.00;2.00;;;;;21.07;56.39;101573.84;5001647;28;46367;-78
2021/08/22 08:55:01;;;;;;;;;4.00;1.50;;;;;21.09;56.50;101577.31;5001801;28;45377;-78
2021/08/22 08:57:27;;;;;;;;;5.00;3.25;;;;;21.12;56.66;101575.38;5000650;28;45313;-77
2021/08/22 08:59:52;;;;;;;;;3.25;2.75;;;;;20.98;56.73;101551.84;5001652;28;45399;-78
2021/08/22 09:02:18;;;;;;;;;2.00;2.00;;;;;21.10;56.02;101560.09;5001537;28;45233;-78
2021/08/22 09:04:52;;;;;;;;;3.00;2.50;;;;;21.20;55.87;101571.22;5001814;28;47318;-78
2021/08/22 09:08:04;;;;;;;;;2.00;2.00;;;;;21.22;55.48;101571.13;5001981;28;45318;-79
2021/08/22 09:10:50;;;;;;;;;2.50;2.50;;;;;21.25;55.45;101568.19;5001568;28;45431;-78
2021/08/22 09:13:43;;;;;;;;;3.00;2.00;;;;;21.28;55.85;101578.88;5001432;28;45420;-78
2021/08/22 09:16:42;;;;;;;;;2.00;2.00;;;;;21.31;55.54;101581.38;5000156;28;45234;-80
2021/08/22 09:19:45;;;;;;;;;3.00;2.00;;;;;21.32;55.62;101579.53;5001834;28;45446;-78
2021/08/22 09:22:25;;;;;;;;;2.00;2.00;;;;;21.34;55.20;101580.34;5001649;28;45621;-77
2021/08/22 09:25:35;;;;;;;;;2.00;2.00;;;;;21.32;54.85;101580.44;5000132;28;47405;-78
2021/08/22 09:28:19;;;;;;;;;2.25;2.00;;;;;21.39;55.31;101581.75;4969168;28;45426;-78
2021/08/22 09:31:09;;;;;;;;;3.25;2.25;;;;;21.42;55.07;101573.44;5001371;28;45221;-78
2021/08/22 09:34:48;;;;;;;;;4.00;2.25;;;;;21.42;55.08;101573.44;5001173;28;45414;-77
2021/08/22 09:37:28;;;;;;;;;3.00;3.00;;;;;21.45;55.27;101575.94;4949700;28;46430;-79
2021/08/22 09:40:29;;;;;;;;;2.00;2.00;;;;;21.46;55.05;101574.94;4959948;28;45393;-79
2021/08/22 09:43:32;;;;;;;;;1.25;1.25;;;;;21.48;54.13;101574.03;4982204;28;45243;-78
2021/08/22 09:46:35;;;;;;;;;1.00;1.00;;;;;21.44;54.48;101582.34;5000857;28;45435;-80
2021/08/22 09:49:29;;;;;;;;;2.25;2.25;;;;;21.43;54.66;101594.19;5000779;28;45379;-78
2021/08/22 09:52:35;;;;;;;;;2.25;2.00;;;;;21.42;54.48;101589.72;5000976;28;45277;-79
2021/08/22 09:55:38;;;;;;;;;2.00;2.00;;;;;21.38;53.96;101607.16;4999663;28;45379;-77
2021/08/22 09:58:40;;;;;;;;;1.00;0.00;;;;;21.35;56.07;101617.34;5000936;28;45222;-80
2021/08/22 10:01:27;;;;;;;;;1.75;1.75;;;;;21.30;56.64;101601.38;5000747;28;46411;-78
2021/08/22 10:04:11;;;;;;;;;1.00;1.00;;;;;21.28;57.40;101595.16;5000635;28;45387;-79
2021/08/22 10:06:56;;;;;;;;;2.75;2.00;;;;;21.28;57.02;101593.34;5000857;28;45175;-78
2021/08/22 10:09:22;;;;;;;;;1.75;0.75;;;;;21.28;58.37;101600.59;5000878;28;45767;-79
2021/08/22 10:12:01;;;;;;;;;1.00;1.00;;;;;21.24;57.71;101596.34;4999301;28;46568;-79
2021/08/22 10:14:28;;;;;;;;;1.00;1.00;;;;;21.30;56.96;101595.94;5000675;28;45378;-78
2021/08/22 10:16:55;;;;;;;;;1.00;1.00;;;;;21.19;56.42;101593.91;5000561;28;45291;-79
2021/08/22 10:19:28;;;;;;;;;0.00;0.00;;;;;21.26;56.25;101603.41;5000691;28;45151;-80
2021/08/22 10:22:11;;;;;;;;;0.50;0.50;;;;;21.24;55.30;101597.19;5000662;28;46625;-77
2021/08/22 10:24:37;;;;;;;;;0.00;0.00;;;;;21.24;55.45;101602.63;5000466;28;45339;-78
2021/08/22 10:27:06;;;;;;;;;0.00;0.00;;;;;21.26;55.93;101597.09;5000599;28;45490;-79
2021/08/22 10:29:33;;;;;;;;;1.25;0.50;;;;;21.25;55.89;101592.63;5000135;28;45330;-79
2021/08/22 10:32:04;;;;;;;;;1.00;1.00;;;;;21.28;56.58;101593.34;5000276;28;46951;-78
2021/08/22 10:34:36;;;;;;;;;0.00;0.00;;;;;21.30;56.26;101595.94;5000500;28;45527;-79
2021/08/22 10:37:29;;;;;;;;;0.00;0.00;;;;;21.31;55.62;101597.69;5000752;28;45390;-78
2021/08/22 10:39:58;;;;;;;;;1.00;1.00;;;;;21.25;56.00;101577.22;5000587;28;45415;-79
2021/08/22 10:42:27;;;;;;;;;2.75;1.50;;;;;21.32;55.97;101588.56;5000051;28;46336;-79
2021/08/22 10:44:53;;;;;;;;;1.50;0.75;;;;;21.27;56.23;101569.00;4999988;28;45444;-79
2021/08/22 10:47:19;;;;;;;;;1.00;1.00;;;;;21.41;55.96;101592.53;5000199;28;45363;-77
2021/08/22 10:49:53;;;;;;;;;2.50;2.00;;;;;21.44;56.77;101589.63;4999048;28;45918;-79
2021/08/22 10:52:26;;;;;;;;;1.00;1.00;;;;;21.48;56.00;101587.59;4999906;28;45517;-80
2021/08/22 10:55:10;;;;;;;;;2.00;0.75;;;;;21.51;55.46;101587.41;5000347;28;45395;-78
2021/08/22 10:57:42;;;;;;;;;0.75;0.75;;;;;21.53;55.82;101586.31;5000192;28;45399;-78
2021/08/22 11:00:30;;;;;;;;;2.00;1.00;;;;;21.56;55.11;101579.84;4999825;28;45495;-77
2021/08/22 11:02:59;;;;;;;;;2.00;1.00;;;;;21.57;55.16;101581.59;4999892;28;46427;-78
2021/08/22 11:05:29;;;;;;;;;2.00;2.00;;;;;21.59;55.01;101585.06;4999503;28;45434;-79
2021/08/22 11:07:55;;;;;;;;;2.00;0.50;;;;;21.46;55.47;101558.66;5003586;28;45262;-78
2021/08/22 11:10:27;;;;;;;;;1.25;1.25;;;;;21.56;54.73;101575.25;5003504;28;45246;-78
2021/08/22 11:12:53;;;;;;;;;1.50;1.50;;;;;21.55;54.61;101561.78;5003376;28;46237;-78
2021/08/22 11:15:29;;;;;;;;;2.00;1.25;;;;;21.63;54.25;101581.16;5003380;28;45643;-79
2021/08/22 11:18:00;;;;;;;;;1.50;1.50;;;;;21.60;54.49;101567.78;5003333;28;45161;-78
2021/08/22 11:20:28;;;;;;;;;1.00;1.00;;;;;21.65;54.73;101563.81;5002240;28;45340;-77
2021/08/22 11:23:06;;;;;;;;;1.00;1.00;;;;;21.57;54.49;101551.72;5003198;28;45267;-79
2021/08/22 11:25:32;;;;;;;;;1.00;1.00;;;;;21.72;55.22;101576.97;5003383;28;45458;-78
2021/08/22 11:28:23;;;;;;;;;0.75;0.75;;;;;21.78;55.09;101580.13;5003164;28;45232;-79
2021/08/22 11:30:49;;;;;;;;;1.00;1.00;;;;;21.76;54.85;101573.09;5000838;28;45265;-77
2021/08/22 11:33:14;;;;;;;;;1.75;1.50;;;;;21.77;55.40;101572.13;5002822;28;46272;-79
2021/08/22 11:35:43;;;;;;;;;2.50;1.75;;;;;21.89;54.85;101576.72;5003170;28;45174;-80